Time;durP1;ratioP1;P1;durP2;ratioP2;P2;SDS_P1;SDS_P2;PMS_P1;PMS_P2;Temp;Humidity;BMP_temperature;BMP_pressure;BME280_temperature;BME280_humidity;BME280_pressure;Samples;Min_cycle;Max_cycle;Signal;HPM_P1;HPM_P2
2022/10/31 00:01:23;;;;;;;9.07;4.70;;;12.60;99.90;;;;;;4956343;29;20073;-67
2022/10/31 00:03:48;;;;;;;8.52;4.68;;;12.50;99.90;;;;;;4956003;29;20043;-67
2022/10/31 00:06:15;;;;;;;9.95;4.72;;;12.50;99.90;;;;;;4956277;29;20161;-67
2022/10/31 00:08:40;;;;;;;10.55;4.95;;;12.50;99.90;;;;;;4956198;29;20506;-67
2022/10/31 00:11:10;;;;;;;7.15;4.15;;;12.40;99.90;;;;;;4956026;28;20051;-67
2022/10/31 00:13:36;;;;;;;8.43;3.90;;;12.40;99.90;;;;;;4955981;29;20050;-67
2022/10/31 00:16:02;;;;;;;7.25;4.03;;;12.40;99.90;;;;;;4956085;29;20112;-68
2022/10/31 00:18:28;;;;;;;8.82;4.25;;;12.40;99.90;;;;;;4956112;29;20039;-67
2022/10/31 00:21:01;;;;;;;10.10;4.45;;;12.50;99.90;;;;;;4938562;29;20126;-67
2022/10/31 00:23:27;;;;;;;7.15;3.83;;;12.40;99.90;;;;;;4938543;29;20055;-67
2022/10/31 00:25:53;;;;;;;6.18;3.63;;;12.70;99.90;;;;;;4955673;29;20369;-67
2022/10/31 00:28:18;;;;;;;7.70;4.78;;;12.40;99.90;;;;;;4955878;29;20035;-67
2022/10/31 00:30:44;;;;;;;9.68;4.95;;;12.40;99.90;;;;;;4955705;29;20435;-67
2022/10/31 00:33:09;;;;;;;7.75;4.43;;;12.50;99.90;;;;;;4955904;29;20384;-68
2022/10/31 00:35:35;;;;;;;11.13;4.45;;;12.30;99.90;;;;;;4955395;29;20475;-67
2022/10/31 00:38:01;;;;;;;5.85;4.05;;;12.40;99.90;;;;;;4955743;29;20046;-68
2022/10/31 00:40:27;;;;;;;8.63;4.97;;;;;;;;;;4938208;29;20059;-68
2022/10/31 00:42:53;;;;;;;8.73;4.13;;;12.10;99.90;;;;;;4938239;29;20086;-67
2022/10/31 00:45:18;;;;;;;8.15;4.30;;;12.10;99.90;;;;;;4955353;29;20480;-67
2022/10/31 00:47:44;;;;;;;10.55;3.90;;;12.10;99.90;;;;;;4955353;29;20097;-67
2022/10/31 00:50:10;;;;;;;10.35;3.47;;;12.30;99.90;;;;;;4955212;29;20047;-68
2022/10/31 00:52:35;;;;;;;8.10;3.95;;;12.00;99.90;;;;;;4955252;29;20035;-67
2022/10/31 00:55:01;;;;;;;9.23;4.18;;;12.10;99.90;;;;;;4955178;29;20046;-67
2022/10/31 00:57:27;;;;;;;13.85;4.43;;;12.10;99.90;;;;;;4955463;29;20086;-67
2022/10/31 00:59:52;;;;;;;9.43;4.38;;;12.10;99.90;;;;;;4955430;29;20043;-67
2022/10/31 01:02:18;;;;;;;8.85;4.40;;;12.10;99.90;;;;;;4955433;29;20502;-67
2022/10/31 01:04:44;;;;;;;9.90;4.63;;;12.00;99.90;;;;;;4955069;29;20384;-69
2022/10/31 01:07:12;;;;;;;8.32;4.22;;;12.10;99.90;;;;;;4938151;29;20043;-67
2022/10/31 01:09:37;;;;;;;10.73;4.55;;;12.00;99.90;;;;;;4955052;29;20059;-67
2022/10/31 01:12:03;;;;;;;7.50;3.95;;;12.00;99.90;;;;;;4938081;29;20403;-67
2022/10/31 01:14:29;;;;;;;8.90;4.20;;;11.90;99.90;;;;;;4937889;29;20081;-67
2022/10/31 01:16:54;;;;;;;7.50;4.20;;;12.00;99.90;;;;;;4955287;29;20459;-68
2022/10/31 01:19:20;;;;;;;8.52;4.55;;;11.90;99.90;;;;;;4955077;29;20062;-67
2022/10/31 01:21:46;;;;;;;12.18;4.53;;;11.90;99.90;;;;;;4955465;28;20093;-67
2022/10/31 01:24:11;;;;;;;11.60;5.05;;;12.10;99.90;;;;;;4941815;29;20413;-67
2022/10/31 01:26:37;;;;;;;11.48;5.35;;;11.90;99.90;;;;;;4959189;29;20169;-68
2022/10/31 01:29:05;;;;;;;7.88;3.75;;;11.90;99.90;;;;;;4958836;29;20399;-68
2022/10/31 01:31:37;;;;;;;12.60;5.03;;;11.80;99.90;;;;;;4941639;29;20053;-67
2022/10/31 01:34:04;;;;;;;6.75;4.57;;;11.90;99.90;;;;;;4959051;29;20050;-67
2022/10/31 01:36:32;;;;;;;8.07;4.57;;;11.90;99.90;;;;;;4958642;29;20150;-67
2022/10/31 01:39:10;;;;;;;10.13;4.97;;;11.90;99.90;;;;;;4958931;29;20045;-67
2022/10/31 01:41:38;;;;;;;7.75;4.53;;;12.30;99.90;;;;;;4958788;29;20130;-68
2022/10/31 01:44:24;;;;;;;9.15;4.78;;;11.90;99.90;;;;;;4958765;29;20050;-67
2022/10/31 01:47:17;;;;;;;7.20;3.83;;;11.80;99.90;;;;;;4958494;29;20043;-67
2022/10/31 01:49:46;;;;;;;11.55;4.60;;;11.90;99.90;;;;;;4941175;29;20123;-67
2022/10/31 01:52:16;;;;;;;8.50;4.00;;;11.80;99.90;;;;;;4958761;29;20427;-67
2022/10/31 01:54:50;;;;;;;11.50;3.83;;;11.80;99.90;;;;;;4958711;29;20106;-67
2022/10/31 01:57:18;;;;;;;7.05;4.10;;;11.80;99.90;;;;;;4958649;29;20078;-67
2022/10/31 01:59:49;;;;;;;7.15;4.07;;;11.80;99.90;;;;;;4941120;29;20047;-67
2022/10/31 02:02:17;;;;;;;7.85;4.18;;;11.90;99.90;;;;;;4941073;29;20098;-67
2022/10/31 02:04:43;;;;;;;17.40;4.93;;;11.80;99.90;;;;;;4958505;29;20047;-67
2022/10/31 02:07:23;;;;;;;7.93;4.75;;;11.80;99.90;;;;;;4941321;29;20051;-67
2022/10/31 02:09:50;;;;;;;6.70;3.83;;;11.80;99.90;;;;;;4958398;29;20040;-67
2022/10/31 02:12:17;;;;;;;9.20;4.25;;;11.70;99.90;;;;;;4958359;29;20035;-67
2022/10/31 02:14:43;;;;;;;10.80;4.82;;;11.80;99.90;;;;;;4958317;29;20042;-67
2022/10/31 02:17:08;;;;;;;12.35;5.35;;;11.70;99.90;;;;;;4958106;29;20121;-67
2022/10/31 02:19:52;;;;;;;10.48;4.43;;;11.70;99.90;;;;;;4958211;29;20086;-67
2022/10/31 02:22:39;;;;;;;7.82;4.68;;;11.70;99.90;;;;;;4958247;29;20098;-67
2022/10/31 02:25:23;;;;;;;11.05;4.63;;;11.60;99.90;;;;;;4958153;29;20522;-67
2022/10/31 02:28:02;;;;;;;9.70;4.63;;;11.60;99.90;;;;;;4957947;29;20043;-67
2022/10/31 02:30:44;;;;;;;14.73;4.82;;;11.60;99.90;;;;;;4958024;29;20059;-67
2022/10/31 02:33:36;;;;;;;11.35;5.15;;;11.50;99.90;;;;;;4957385;28;20483;-68
2022/10/31 02:36:15;;;;;;;11.60;4.43;;;11.50;99.90;;;;;;4957484;29;20062;-67
2022/10/31 02:39:02;;;;;;;9.43;4.32;;;11.40;99.90;;;;;;4957958;29;20479;-67
2022/10/31 02:41:48;;;;;;;8.57;4.35;;;11.40;99.90;;;;;;4940481;29;20059;-67
2022/10/31 02:44:53;;;;;;;6.32;3.97;;;11.30;99.90;;;;;;4957565;29;20046;-67
2022/10/31 02:47:23;;;;;;;7.85;4.78;;;11.30;99.90;;;;;;4957799;29;20046;-67
2022/10/31 02:50:05;;;;;;;9.50;4.05;;;11.30;99.90;;;;;;4957663;29;20475;-67
2022/10/31 02:52:33;;;;;;;6.70;4.40;;;11.30;99.90;;;;;;4957707;29;20046;-67
2022/10/31 02:55:09;;;;;;;11.60;4.03;;;11.30;99.90;;;;;;4957669;29;20051;-67
2022/10/31 02:57:36;;;;;;;7.60;4.43;;;11.40;99.90;;;;;;4957643;29;20031;-67
2022/10/31 03:00:05;;;;;;;7.85;4.35;;;11.20;99.90;;;;;;4940482;29;20087;-69
2022/10/31 03:03:00;;;;;;;10.50;4.85;;;11.30;99.90;;;;;;4957844;29;20454;-64
2022/10/31 03:05:47;;;;;;;8.30;4.22;;;11.30;99.90;;;;;;4921283;29;20055;-62
2022/10/31 03:08:21;;;;;;;9.20;4.57;;;11.20;99.90;;;;;;4957414;29;20047;-62
2022/10/31 03:11:05;;;;;;;6.90;3.95;;;11.20;99.90;;;;;;4957300;29;20075;-62
2022/10/31 03:13:35;;;;;;;7.88;3.80;;;11.10;99.90;;;;;;4957079;29;20035;-63
2022/10/31 03:16:28;;;;;;;8.73;4.03;;;11.20;99.90;;;;;;4957233;29;20051;-62
2022/10/31 03:19:14;;;;;;;8.35;4.28;;;11.10;99.90;;;;;;4957227;29;20472;-62
2022/10/31 03:21:55;;;;;;;5.15;3.53;;;11.00;99.90;;;;;;4957118;29;20082;-63
2022/10/31 03:24:24;;;;;;;8.95;4.28;;;11.00;99.90;;;;;;4957125;29;20050;-62
2022/10/31 03:26:53;;;;;;;6.88;3.83;;;10.90;99.90;;;;;;4956988;29;20051;-62
2022/10/31 03:29:22;;;;;;;8.70;4.45;;;10.90;99.90;;;;;;4939774;29;20052;-62
2022/10/31 03:32:12;;;;;;;10.18;4.72;;;10.90;99.90;;;;;;4956611;29;20045;-63
2022/10/31 03:34:41;;;;;;;10.43;4.55;;;10.80;99.90;;;;;;4956929;29;20035;-62
2022/10/31 03:37:10;;;;;;;7.35;3.83;;;10.80;99.90;;;;;;4956601;29;20062;-62
2022/10/31 03:39:38;;;;;;;9.07;4.30;;;10.80;99.90;;;;;;4956821;29;20384;-65
2022/10/31 03:42:04;;;;;;;11.02;4.57;;;10.90;99.90;;;;;;4956425;29;20054;-62
2022/10/31 03:44:32;;;;;;;8.82;4.13;;;10.80;99.90;;;;;;4939383;28;20039;-62
2022/10/31 03:46:58;;;;;;;7.32;3.83;;;10.80;99.90;;;;;;4956544;29;20050;-62
2022/10/31 03:49:24;;;;;;;7.55;4.00;;;10.80;99.90;;;;;;4956152;29;20043;-62
2022/10/31 03:52:02;;;;;;;11.57;5.22;;;10.80;99.90;;;;;;4956609;29;20094;-62
2022/10/31 03:54:36;;;;;;;5.97;3.83;;;10.70;99.90;;;;;;4956528;29;20042;-62
2022/10/31 03:57:26;;;;;;;8.98;4.50;;;10.70;99.90;;;;;;4956436;29;20071;-62
2022/10/31 03:59:59;;;;;;;9.57;4.35;;;10.70;99.90;;;;;;4956395;29;20090;-62
2022/10/31 04:02:30;;;;;;;7.22;3.95;;;10.70;99.90;;;;;;4938888;29;20113;-62
2022/10/31 04:04:57;;;;;;;8.13;4.22;;;10.60;99.90;;;;;;4938819;29;20043;-62
2022/10/31 04:07:29;;;;;;;9.90;4.90;;;10.60;99.90;;;;;;4956250;29;20136;-62
2022/10/31 04:09:57;;;;;;;10.15;4.50;;;10.60;99.90;;;;;;4955819;29;20043;-62
2022/10/31 04:12:25;;;;;;;6.75;4.05;;;10.60;99.90;;;;;;4955879;29;20075;-62
2022/10/31 04:14:52;;;;;;;6.43;4.22;;;10.60;99.90;;;;;;4939041;29;20126;-62
2022/10/31 04:17:21;;;;;;;8.38;3.88;;;10.50;99.90;;;;;;4956203;29;20035;-63
2022/10/31 04:19:47;;;;;;;7.80;4.35;;;10.70;99.90;;;;;;4956101;29;20114;-62
2022/10/31 04:22:13;;;;;;;8.65;4.28;;;10.50;99.90;;;;;;4956045;29;20070;-62
2022/10/31 04:24:40;;;;;;;8.75;5.00;;;10.50;99.90;;;;;;4955979;29;20059;-62
2022/10/31 04:27:06;;;;;;;11.18;4.95;;;10.50;99.90;;;;;;4956295;29;20122;-62
2022/10/31 04:29:31;;;;;;;8.05;4.35;;;10.40;99.90;;;;;;4955863;29;20138;-62
2022/10/31 04:31:57;;;;;;;10.48;4.75;;;10.40;99.90;;;;;;4955860;29;20179;-62
2022/10/31 04:34:23;;;;;;;10.18;5.25;;;10.40;99.90;;;;;;4955839;29;20050;-62
2022/10/31 04:36:48;;;;;;;7.65;4.93;;;10.30;99.90;;;;;;4955339;29;20098;-62
2022/10/31 04:39:14;;;;;;;7.78;4.40;;;10.30;99.90;;;;;;4955803;29;20035;-62
2022/10/31 04:41:40;;;;;;;10.65;4.68;;;10.30;99.90;;;;;;4955818;29;20046;-62
2022/10/31 04:44:05;;;;;;;8.85;5.35;;;10.30;99.90;;;;;;4955716;29;20140;-62
2022/10/31 04:46:31;;;;;;;10.27;5.25;;;10.30;99.90;;;;;;4955346;29;20047;-62
2022/10/31 04:48:57;;;;;;;9.90;5.50;;;10.20;99.90;;;;;;4955361;29;20121;-62
2022/10/31 04:51:22;;;;;;;8.70;4.97;;;10.50;99.90;;;;;;4955560;29;20102;-62
2022/10/31 04:53:48;;;;;;;5.50;3.83;;;10.20;99.90;;;;;;4955302;29;20047;-62
2022/10/31 04:56:14;;;;;;;12.50;4.55;;;10.20;99.90;;;;;;4955139;28;20394;-62
2022/10/31 04:58:40;;;;;;;10.68;4.93;;;10.10;99.90;;;;;;4955186;29;20057;-62
2022/10/31 05:01:05;;;;;;;11.15;4.40;;;10.20;99.90;;;;;;4955461;29;20043;-62
2022/10/31 05:03:31;;;;;;;8.68;4.60;;;10.10;99.90;;;;;;4938008;29;20047;-62
2022/10/31 05:05:57;;;;;;;7.82;4.60;;;10.10;99.90;;;;;;4955357;29;20509;-62
2022/10/31 05:08:22;;;;;;;8.85;4.47;;;10.00;99.90;;;;;;4955429;29;20144;-62
2022/10/31 05:10:48;;;;;;;8.57;4.57;;;10.10;99.90;;;;;;4938160;29;20407;-62
2022/10/31 05:13:15;;;;;;;8.80;5.05;;;10.70;99.90;;;;;;4955349;29;20031;-63
2022/10/31 05:15:41;;;;;;;5.85;3.85;;;9.90;99.90;;;;;;4937924;29;20062;-62
2022/10/31 05:18:07;;;;;;;10.25;4.63;;;9.90;99.90;;;;;;4954999;29;20047;-62
2022/10/31 05:20:32;;;;;;;9.73;4.88;;;9.90;99.90;;;;;;4955269;29;20039;-62
2022/10/31 05:22:59;;;;;;;8.10;4.32;;;9.90;99.90;;;;;;4954961;29;20110;-62
2022/10/31 05:25:26;;;;;;;6.30;3.90;;;9.80;99.90;;;;;;4955214;29;20483;-62
2022/10/31 05:27:53;;;;;;;10.07;4.95;;;9.80;99.90;;;;;;4938083;29;20039;-62
2022/10/31 05:30:21;;;;;;;10.55;5.53;;;9.70;99.90;;;;;;4954824;29;20044;-63
2022/10/31 05:32:49;;;;;;;11.02;4.82;;;9.70;99.90;;;;;;4937787;29;20039;-62
2022/10/31 05:35:23;;;;;;;7.70;4.50;;;9.70;99.90;;;;;;4955010;28;20395;-63
2022/10/31 05:37:49;;;;;;;12.50;4.70;;;9.60;99.90;;;;;;4955063;29;20043;-66
2022/10/31 05:40:16;;;;;;;9.65;4.97;;;9.60;99.90;;;;;;4955061;29;20043;-62
2022/10/31 05:42:43;;;;;;;9.65;4.88;;;9.60;99.90;;;;;;4955071;29;20043;-62
2022/10/31 05:45:11;;;;;;;7.38;4.55;;;9.70;99.90;;;;;;4954993;29;20043;-62
2022/10/31 05:47:37;;;;;;;6.40;4.22;;;9.60;99.90;;;;;;4954617;29;20122;-62
2022/10/31 05:50:03;;;;;;;10.50;4.63;;;9.60;99.90;;;;;;4937430;29;20130;-63
2022/10/31 05:52:28;;;;;;;7.35;3.78;;;9.50;99.90;;;;;;4938021;29;20591;-64
2022/10/31 05:54:54;;;;;;;7.68;4.40;;;9.50;99.90;;;;;;4954931;29;20039;-62
2022/10/31 05:57:20;;;;;;;7.03;4.57;;;9.50;99.90;;;;;;4937425;29;20050;-62
2022/10/31 05:59:45;;;;;;;9.98;5.13;;;9.50;99.90;;;;;;4937392;29;20078;-62
2022/10/31 06:02:11;;;;;;;10.65;5.30;;;9.50;99.90;;;;;;4954561;29;20098;-62
2022/10/31 06:04:37;;;;;;;9.07;4.75;;;9.50;99.90;;;;;;4954899;29;20035;-62
2022/10/31 06:07:02;;;;;;;9.60;4.68;;;9.50;99.90;;;;;;4954591;29;20043;-62
2022/10/31 06:09:28;;;;;;;10.68;5.00;;;9.80;99.90;;;;;;4957513;28;20046;-62
2022/10/31 06:11:54;;;;;;;11.65;5.60;;;9.50;99.90;;;;;;4958332;29;20043;-62
2022/10/31 06:14:20;;;;;;;11.35;5.22;;;9.90;99.90;;;;;;4958334;29;20039;-62
2022/10/31 06:16:45;;;;;;;10.23;5.13;;;9.40;99.90;;;;;;4941117;29;20527;-62
2022/10/31 06:19:11;;;;;;;7.95;5.20;;;9.40;99.90;;;;;;4958217;29;20039;-62
2022/10/31 06:21:37;;;;;;;9.07;4.82;;;9.40;99.90;;;;;;4958224;29;20058;-62
2022/10/31 06:24:03;;;;;;;12.82;5.60;;;9.40;99.90;;;;;;4958248;29;20039;-62
2022/10/31 06:26:28;;;;;;;8.25;5.05;;;9.50;99.90;;;;;;4958195;29;20118;-65
2022/10/31 06:28:54;;;;;;;10.63;4.78;;;9.50;99.90;;;;;;4940699;29;20384;-62
2022/10/31 06:31:19;;;;;;;9.15;5.30;;;9.50;99.90;;;;;;4958023;29;20391;-61
2022/10/31 06:33:45;;;;;;;13.00;6.05;;;9.60;99.90;;;;;;4958063;29;20451;-62
2022/10/31 06:36:11;;;;;;;12.25;6.18;;;9.60;99.90;;;;;;4957773;29;20086;-61
2022/10/31 06:38:36;;;;;;;10.85;5.22;;;9.60;99.90;;;;;;4957984;29;20403;-62
2022/10/31 06:41:04;;;;;;;10.13;5.60;;;9.60;99.90;;;;;;4940854;29;20411;-62
2022/10/31 06:43:30;;;;;;;9.50;5.57;;;9.60;99.90;;;;;;4940663;29;20050;-62
2022/10/31 06:45:56;;;;;;;9.82;5.63;;;9.50;99.90;;;;;;4940557;29;20090;-66
2022/10/31 06:48:22;;;;;;;9.90;4.85;;;9.50;99.90;;;;;;4957848;29;20489;-62
2022/10/31 06:50:47;;;;;;;11.15;5.47;;;9.50;99.90;;;;;;4957322;29;20086;-62
2022/10/31 06:53:14;;;;;;;8.63;5.35;;;9.50;99.90;;;;;;4957642;29;20110;-61
2022/10/31 06:55:40;;;;;;;17.95;5.85;;;9.60;99.90;;;;;;4957717;29;20503;-61
2022/10/31 06:58:08;;;;;;;7.95;4.63;;;10.00;99.90;;;;;;4957541;29;20035;-61
2022/10/31 07:00:33;;;;;;;8.65;4.53;;;9.60;99.90;;;;;;4940225;29;20051;-61
2022/10/31 07:03:04;;;;;;;13.77;5.25;;;9.70;99.90;;;;;;4957317;29;20119;-64
2022/10/31 07:05:30;;;;;;;12.63;5.68;;;9.70;99.90;;;;;;4957080;29;20094;-62
2022/10/31 07:07:59;;;;;;;6.13;4.55;;;9.70;99.90;;;;;;4956997;29;20126;-62
2022/10/31 07:10:26;;;;;;;6.65;4.85;;;10.30;99.90;;;;;;4957235;29;20071;-61
2022/10/31 07:12:57;;;;;;;6.88;4.97;;;9.70;99.90;;;;;;4957286;29;20043;-62
2022/10/31 07:15:23;;;;;;;10.00;4.73;;;9.70;99.90;;;;;;4957198;29;20416;-61
2022/10/31 07:17:49;;;;;;;15.23;5.68;;;9.70;99.90;;;;;;4957130;29;20270;-62
2022/10/31 07:20:14;;;;;;;14.32;4.88;;;9.60;99.90;;;;;;4938836;29;20619;-62
2022/10/31 07:22:40;;;;;;;12.57;5.35;;;9.70;99.90;;;;;;4956792;29;20051;-61
2022/10/31 07:25:06;;;;;;;8.75;4.80;;;9.60;99.90;;;;;;4957010;29;20074;-62
2022/10/31 07:27:36;;;;;;;9.40;5.10;;;9.70;99.90;;;;;;4956644;29;20161;-62
2022/10/31 07:30:03;;;;;;;8.53;5.23;;;9.60;99.90;;;;;;4956723;29;20051;-62
2022/10/31 07:32:47;;;;;;;7.90;5.07;;;9.70;99.90;;;;;;4956914;29;20511;-65
2022/10/31 07:35:15;;;;;;;10.93;5.13;;;9.70;99.90;;;;;;4956901;29;20554;-62
2022/10/31 07:37:42;;;;;;;7.80;4.32;;;9.70;99.90;;;;;;4956395;29;20062;-62
2022/10/31 07:40:09;;;;;;;10.15;5.45;;;9.80;99.90;;;;;;4956692;29;20130;-61
2022/10/31 07:42:45;;;;;;;12.02;5.90;;;9.80;99.90;;;;;;4956711;29;20110;-61
2022/10/31 07:45:13;;;;;;;8.93;5.22;;;9.80;99.90;;;;;;4956652;29;20043;-62
2022/10/31 07:47:50;;;;;;;7.47;5.13;;;9.90;99.90;;;;;;4956565;29;20039;-62
2022/10/31 07:50:24;;;;;;;9.35;5.93;;;9.90;99.90;;;;;;4956175;29;20126;-62
2022/10/31 07:53:07;;;;;;;7.65;5.05;;;10.20;99.90;;;;;;4956242;29;20075;-62
2022/10/31 07:55:33;;;;;;;9.57;5.30;;;10.10;99.90;;;;;;4939156;29;20035;-62
2022/10/31 07:58:01;;;;;;;7.97;5.55;;;10.10;99.90;;;;;;4939000;29;20047;-62
2022/10/31 08:00:27;;;;;;;8.80;5.45;;;10.10;99.90;;;;;;4956146;29;20039;-62
2022/10/31 08:03:14;;;;;;;8.57;5.35;;;10.20;99.90;;;;;;4923059;29;20047;-62
2022/10/31 08:05:40;;;;;;;10.40;5.60;;;10.30;99.90;;;;;;4939643;29;20054;-62
2022/10/31 08:08:07;;;;;;;7.00;5.10;;;10.40;99.90;;;;;;4956077;29;20043;-63
2022/10/31 08:10:34;;;;;;;8.32;5.55;;;10.40;99.90;;;;;;4955991;29;20057;-62
2022/10/31 08:13:06;;;;;;;11.15;5.80;;;10.50;99.90;;;;;;4955978;29;20108;-62
2022/10/31 08:15:33;;;;;;;10.02;5.50;;;10.50;99.90;;;;;;4956187;29;20047;-62
2022/10/31 08:17:59;;;;;;;11.35;5.53;;;10.50;99.90;;;;;;4955935;29;20050;-62
2022/10/31 08:20:25;;;;;;;9.00;5.72;;;10.60;99.90;;;;;;4956125;29;20039;-63
2022/10/31 08:22:58;;;;;;;8.35;5.25;;;10.70;99.90;;;;;;4956057;29;20054;-62
2022/10/31 08:25:25;;;;;;;8.77;5.70;;;10.70;99.90;;;;;;4938855;29;20051;-62
2022/10/31 08:27:52;;;;;;;9.02;5.20;;;10.80;99.90;;;;;;4956073;29;20070;-62
2022/10/31 08:30:20;;;;;;;9.13;5.75;;;10.80;99.90;;;;;;4955913;29;20501;-62
2022/10/31 08:32:45;;;;;;;9.82;5.68;;;10.90;99.90;;;;;;4955842;28;20063;-62
2022/10/31 08:35:11;;;;;;;10.45;5.65;;;10.90;99.90;;;;;;4922907;29;20215;-62
2022/10/31 08:37:37;;;;;;;10.68;5.55;;;11.00;99.90;;;;;;4955390;29;20122;-62
2022/10/31 08:40:03;;;;;;;8.77;5.82;;;11.00;99.90;;;;;;4938278;29;20059;-62
2022/10/31 08:42:29;;;;;;;8.52;5.43;;;11.00;99.90;;;;;;4955773;29;20043;-62
2022/10/31 08:44:54;;;;;;;8.40;5.45;;;11.00;99.90;;;;;;4955645;29;20170;-62
2022/10/31 08:47:20;;;;;;;8.90;5.45;;;11.10;99.90;;;;;;4938561;29;20395;-62
2022/10/31 08:49:46;;;;;;;8.73;6.53;;;11.10;99.90;;;;;;4955575;29;20506;-62
2022/10/31 08:52:11;;;;;;;11.00;6.07;;;11.20;99.90;;;;;;4955628;29;20480;-62
2022/10/31 08:54:37;;;;;;;13.20;6.38;;;11.20;99.90;;;;;;4955605;29;20047;-61
2022/10/31 08:57:03;;;;;;;9.90;5.75;;;11.20;99.90;;;;;;4955281;29;20479;-62
2022/10/31 08:59:28;;;;;;;12.15;6.40;;;11.30;99.90;;;;;;4922547;29;20443;-62
2022/10/31 09:01:54;;;;;;;9.43;5.63;;;11.40;99.90;;;;;;4955474;29;20039;-61
2022/10/31 09:04:20;;;;;;;8.82;5.72;;;11.40;99.90;;;;;;4938044;29;20121;-63
2022/10/31 09:06:45;;;;;;;10.82;5.63;;;11.40;99.90;;;;;;4955453;29;20039;-62
2022/10/31 09:09:11;;;;;;;11.18;6.15;;;11.50;99.90;;;;;;4955487;29;20101;-62
2022/10/31 09:11:36;;;;;;;11.38;6.28;;;11.60;99.90;;;;;;4937942;29;20046;-62
2022/10/31 09:14:02;;;;;;;12.10;7.03;;;11.70;99.90;;;;;;4955018;29;20115;-62
2022/10/31 09:16:28;;;;;;;13.50;6.85;;;11.70;99.90;;;;;;4938069;29;20051;-62
2022/10/31 09:18:53;;;;;;;12.90;6.82;;;11.80;99.90;;;;;;4955360;29;20082;-62
2022/10/31 09:21:19;;;;;;;13.32;6.78;;;11.90;99.90;;;;;;4955133;29;20039;-62
2022/10/31 09:23:45;;;;;;;11.63;6.80;;;12.00;99.90;;;;;;4955229;29;20487;-62
2022/10/31 09:26:10;;;;;;;15.85;6.63;;;12.10;99.90;;;;;;4955295;29;20051;-62
2022/10/31 09:28:36;;;;;;;11.48;6.78;;;12.20;99.90;;;;;;4954887;29;20047;-62
2022/10/31 09:31:02;;;;;;;18.90;7.07;;;12.60;99.90;;;;;;4955118;29;20063;-62
2022/10/31 09:33:27;;;;;;;12.48;7.13;;;12.40;99.90;;;;;;4954929;29;20404;-62
2022/10/31 09:35:53;;;;;;;11.13;6.57;;;12.70;99.90;;;;;;4954851;28;20055;-62
2022/10/31 09:38:20;;;;;;;9.38;5.47;;;12.60;99.90;;;;;;4937649;29;20543;-62
2022/10/31 09:40:47;;;;;;;12.43;6.60;;;12.70;99.90;;;;;;4954734;29;20131;-62
2022/10/31 09:43:22;;;;;;;10.60;6.07;;;12.80;99.90;;;;;;4938473;29;20043;-62
2022/10/31 09:46:16;;;;;;;8.90;6.03;;;12.90;99.90;;;;;;4958886;29;20035;-62
2022/10/31 09:49:18;;;;;;;9.43;6.35;;;12.90;99.90;;;;;;4958584;29;20050;-62
2022/10/31 09:52:00;;;;;;;10.27;5.50;;;13.00;99.90;;;;;;4958742;29;20394;-62
2022/10/31 09:54:34;;;;;;;9.48;6.15;;;13.00;99.90;;;;;;4958848;29;20039;-62
2022/10/31 09:57:01;;;;;;;10.48;5.93;;;13.10;99.90;;;;;;4958353;29;20089;-62
2022/10/31 09:59:40;;;;;;;11.20;5.10;;;13.30;99.90;;;;;;4958379;29;20051;-62
2022/10/31 10:02:32;;;;;;;10.50;5.13;;;13.10;99.90;;;;;;4941741;29;20047;-62
2022/10/31 10:05:05;;;;;;;13.30;5.60;;;13.20;99.90;;;;;;4958311;29;20104;-62
2022/10/31 10:07:56;;;;;;;8.60;5.40;;;13.20;99.90;;;;;;4925298;29;20047;-62
2022/10/31 10:10:47;;;;;;;10.90;5.33;;;13.20;99.90;;;;;;4958341;29;20201;-62
2022/10/31 10:13:40;;;;;;;14.40;5.55;;;13.30;99.90;;;;;;4954376;29;20451;-62
2022/10/31 10:16:35;;;;;;;9.40;4.88;;;13.40;99.90;;;;;;4958406;29;20046;-61
2022/10/31 10:19:27;;;;;;;14.60;5.30;;;13.40;99.90;;;;;;4958125;29;20118;-61
2022/10/31 10:22:15;;;;;;;13.40;6.43;;;13.40;99.90;;;;;;4958299;29;20151;-61
2022/10/31 10:24:59;;;;;;;12.50;5.38;;;13.50;99.90;;;;;;4958290;29;20039;-61
2022/10/31 10:27:37;;;;;;;11.07;5.32;;;13.50;99.90;;;;;;4957875;29;20039;-61
2022/10/31 10:30:06;;;;;;;11.35;5.45;;;13.50;99.90;;;;;;4957798;29;20095;-61
2022/10/31 10:32:51;;;;;;;12.70;5.57;;;13.60;99.90;;;;;;4958042;29;20093;-61
2022/10/31 10:35:33;;;;;;;9.80;5.57;;;13.70;99.90;;;;;;4957760;29;20035;-61
2022/10/31 10:38:28;;;;;;;9.63;5.43;;;13.80;99.90;;;;;;4957960;29;20125;-61
2022/10/31 10:40:54;;;;;;;9.15;5.68;;;14.00;99.90;;;;;;4957915;29;20513;-61
2022/10/31 10:43:30;;;;;;;7.80;4.63;;;14.00;99.90;;;;;;4957990;29;20074;-61
2022/10/31 10:48:56;;;;;;;8.30;5.20;;;14.20;99.90;;;;;;4957447;29;20043;-61
2022/10/31 10:51:45;;;;;;;13.48;5.25;;;14.40;99.90;;;;;;4957732;29;20047;-61
2022/10/31 10:54:33;;;;;;;11.50;4.88;;;14.50;99.90;;;;;;4945330;28;20504;-61
2022/10/31 10:57:11;;;;;;;13.15;5.72;;;14.50;99.90;;;;;;4957521;29;20058;-61
2022/10/31 10:59:37;;;;;;;9.57;5.03;;;14.60;99.90;;;;;;4957642;29;20045;-61
2022/10/31 11:02:15;;;;;;;8.05;4.28;;;14.60;99.90;;;;;;4940405;29;20049;-61
2022/10/31 11:04:42;;;;;;;7.53;4.68;;;14.80;99.90;;;;;;4957518;29;20079;-61
2022/10/31 11:07:10;;;;;;;9.43;4.45;;;14.60;99.90;;;;;;4957466;29;20453;-61
2022/10/31 11:09:37;;;;;;;7.63;3.95;;;14.70;99.90;;;;;;4957011;29;20039;-61
2022/10/31 11:12:24;;;;;;;7.07;3.80;;;14.70;99.90;;;;;;4957303;29;20435;-61
2022/10/31 11:14:55;;;;;;;7.57;3.60;;;14.80;99.90;;;;;;4956985;29;20147;-61
2022/10/31 11:17:33;;;;;;;6.38;3.83;;;14.90;99.90;;;;;;4957280;29;20114;-61
2022/10/31 11:20:14;;;;;;;6.05;3.30;;;15.20;99.90;;;;;;4956912;29;20082;-61
2022/10/31 11:22:42;;;;;;;9.13;3.63;;;15.40;99.90;;;;;;4957178;29;20058;-61
2022/10/31 11:25:25;;;;;;;6.55;3.40;;;15.50;99.90;;;;;;4956864;29;20073;-61
2022/10/31 11:28:09;;;;;;;6.78;3.60;;;15.80;99.90;;;;;;4956624;29;20047;-61
2022/10/31 11:30:58;;;;;;;6.50;3.47;;;15.80;99.90;;;;;;4956902;29;20122;-61
2022/10/31 11:33:31;;;;;;;10.85;3.78;;;15.90;99.90;;;;;;4956878;29;20094;-61
2022/10/31 11:35:57;;;;;;;5.72;3.00;;;16.00;99.90;;;;;;4956421;29;20083;-61
2022/10/31 11:38:29;;;;;;;6.63;3.38;;;16.00;99.90;;;;;;4956732;29;20491;-61
2022/10/31 11:41:04;;;;;;;8.07;3.83;;;15.90;99.90;;;;;;4956549;29;20106;-61
2022/10/31 11:43:30;;;;;;;6.55;3.65;;;15.90;99.90;;;;;;4956819;29;20534;-61
2022/10/31 11:45:56;;;;;;;8.48;3.33;;;15.90;99.90;;;;;;4939181;29;20051;-61
2022/10/31 11:48:24;;;;;;;7.50;4.57;;;15.90;99.90;;;;;;4956689;29;20046;-61
2022/10/31 11:50:56;;;;;;;8.85;3.90;;;15.90;99.90;;;;;;4956249;29;20043;-61
2022/10/31 11:53:32;;;;;;;6.25;3.63;;;15.90;99.90;;;;;;4956296;29;20047;-61
2022/10/31 11:56:12;;;;;;;7.07;3.92;;;15.80;99.90;;;;;;4956512;29;20447;-61
2022/10/31 11:58:38;;;;;;;8.18;4.05;;;15.70;99.90;;;;;;4956316;29;20071;-61
2022/10/31 12:01:04;;;;;;;6.53;4.22;;;15.60;99.90;;;;;;4956148;29;20186;-61
2022/10/31 12:04:02;;;;;;;8.55;4.50;;;15.60;99.90;;;;;;4956404;29;20047;-61
2022/10/31 12:06:36;;;;;;;8.15;4.38;;;15.50;99.90;;;;;;4913292;29;20074;-61
2022/10/31 12:09:02;;;;;;;11.52;4.60;;;15.50;99.90;;;;;;4938848;29;20062;-61
2022/10/31 12:11:49;;;;;;;8.18;4.32;;;15.60;99.90;;;;;;4938682;29;20047;-61
2022/10/31 12:14:33;;;;;;;10.73;4.40;;;15.70;99.90;;;;;;4956215;29;20046;-61
2022/10/31 12:17:19;;;;;;;9.60;4.38;;;15.70;99.90;;;;;;4956145;29;20376;-61
2022/10/31 12:19:51;;;;;;;8.38;4.13;;;15.70;99.90;;;;;;4956120;29;20047;-61
2022/10/31 12:22:42;;;;;;;7.65;3.75;;;15.70;99.90;;;;;;4956116;29;20399;-61
2022/10/31 12:25:14;;;;;;;8.10;3.75;;;15.60;99.90;;;;;;4956093;29;20045;-61
2022/10/31 12:28:01;;;;;;;9.75;3.88;;;15.60;99.90;;;;;;4955683;29;20043;-61
2022/10/31 12:30:31;;;;;;;6.32;3.78;;;15.60;99.90;;;;;;4955940;29;20066;-61
2022/10/31 12:33:09;;;;;;;15.60;3.85;;;15.70;99.90;;;;;;4955914;29;20458;-61
2022/10/31 12:35:38;;;;;;;9.15;4.03;;;15.70;99.90;;;;;;4955709;29;20118;-61
2022/10/31 12:38:07;;;;;;;7.65;4.57;;;15.70;99.90;;;;;;4955770;29;20043;-61
2022/10/31 12:40:58;;;;;;;7.57;3.42;;;15.70;99.90;;;;;;4955508;29;20046;-61
2022/10/31 12:43:29;;;;;;;7.47;3.50;;;15.70;99.90;;;;;;4938548;29;20080;-61
2022/10/31 12:45:57;;;;;;;9.68;3.30;;;15.60;99.90;;;;;;4955653;29;20047;-61
2022/10/31 12:48:52;;;;;;;8.02;3.67;;;15.50;99.90;;;;;;4938161;29;20062;-61
2022/10/31 12:51:26;;;;;;;6.53;3.83;;;15.50;99.90;;;;;;4955582;29;20050;-61
2022/10/31 12:54:16;;;;;;;7.13;3.35;;;15.50;99.90;;;;;;4955274;29;20050;-61
2022/10/31 12:57:06;;;;;;;9.75;3.70;;;15.50;99.90;;;;;;4938339;29;20054;-62
2022/10/31 12:59:45;;;;;;;5.57;3.10;;;15.50;99.90;;;;;;4955312;29;20134;-61
2022/10/31 13:02:24;;;;;;;7.57;3.60;;;15.60;99.90;;;;;;4955504;29;20596;-61
2022/10/31 13:04:53;;;;;;;5.05;2.83;;;15.60;99.90;;;;;;4955447;29;20042;-61
2022/10/31 13:07:28;;;;;;;8.80;3.35;;;15.70;99.90;;;;;;4955153;29;20043;-61
2022/10/31 13:10:02;;;;;;;6.50;3.50;;;15.70;99.90;;;;;;4954943;29;20105;-61